createdAt,value
2018-07-31T00:02:08.858Z,27.60
2018-07-31T00:04:37.092Z,27.70
2018-07-31T00:07:05.322Z,27.60
2018-07-31T00:09:33.605Z,27.60
2018-07-31T00:12:01.842Z,27.60
2018-07-31T00:14:30.097Z,27.50
2018-07-31T00:16:58.408Z,27.50
2018-07-31T00:19:26.627Z,27.40
2018-07-31T00:21:54.830Z,27.40
2018-07-31T00:24:23.041Z,27.40
2018-07-31T00:26:51.301Z,27.30
2018-07-31T00:29:19.484Z,27.30
2018-07-31T00:31:47.681Z,27.20
2018-07-31T00:34:15.911Z,27.10
2018-07-31T00:36:44.118Z,27.10
2018-07-31T00:39:12.690Z,27.00
2018-07-31T00:41:41.585Z,26.90
2018-07-31T00:44:09.806Z,26.80
2018-07-31T00:46:38.131Z,26.70
2018-07-31T00:49:06.327Z,26.70
2018-07-31T00:51:34.794Z,26.60
2018-07-31T00:54:03.079Z,26.60
2018-07-31T00:56:31.319Z,26.40
2018-07-31T00:58:59.532Z,26.30
2018-07-31T01:01:27.759Z,26.30
2018-07-31T01:03:56.088Z,26.30
2018-07-31T01:06:31.429Z,26.10
2018-07-31T01:08:59.724Z,26.10
2018-07-31T01:11:27.970Z,26.10
2018-07-31T01:13:56.175Z,26.00
2018-07-31T01:16:24.407Z,26.00
2018-07-31T01:18:52.890Z,25.90
2018-07-31T01:21:21.107Z,25.90
2018-07-31T01:23:49.322Z,25.90
2018-07-31T01:26:17.550Z,26.00
2018-07-31T01:28:45.803Z,25.90
2018-07-31T01:31:14.047Z,25.90
2018-07-31T01:33:42.269Z,25.80
2018-07-31T01:36:10.496Z,25.80
2018-07-31T01:38:38.710Z,25.70
2018-07-31T01:41:06.997Z,25.60
2018-07-31T01:43:35.364Z,25.50
2018-07-31T01:46:03.658Z,25.50
2018-07-31T01:48:31.906Z,25.50
2018-07-31T01:51:00.132Z,25.40
2018-07-31T01:53:28.337Z,25.30
2018-07-31T01:55:56.572Z,25.30
2018-07-31T01:58:24.784Z,25.30
2018-07-31T02:00:53.093Z,25.40
2018-07-31T02:03:21.316Z,25.40
2018-07-31T02:05:49.533Z,25.40
2018-07-31T02:08:17.714Z,25.40
2018-07-31T02:10:48.347Z,25.50
2018-07-31T02:13:16.728Z,25.40
2018-07-31T02:15:45.316Z,25.30
2018-07-31T02:18:13.612Z,25.30
2018-07-31T02:20:42.158Z,25.40
2018-07-31T02:23:11.512Z,25.30
2018-07-31T02:25:40.166Z,25.30
2018-07-31T02:28:08.677Z,25.30
2018-07-31T02:30:36.874Z,25.30
2018-07-31T02:33:05.284Z,25.30
2018-07-31T02:35:33.544Z,25.30
2018-07-31T02:38:01.746Z,25.40
2018-07-31T02:40:30.003Z,25.40
2018-07-31T02:42:58.286Z,25.40
2018-07-31T02:45:26.540Z,25.40
2018-07-31T02:50:22.749Z,25.40
2018-07-31T02:52:50.980Z,25.40
2018-07-31T02:55:19.189Z,25.30
2018-07-31T02:57:47.520Z,25.30
2018-07-31T03:00:15.771Z,25.40
2018-07-31T03:02:44.003Z,25.30
2018-07-31T03:05:12.523Z,25.30
2018-07-31T03:07:40.943Z,25.20
2018-07-31T03:10:10.137Z,25.20
2018-07-31T03:12:38.385Z,25.30
2018-07-31T03:15:08.139Z,25.30
2018-07-31T03:17:36.338Z,25.30
2018-07-31T03:20:05.560Z,25.30
2018-07-31T03:22:33.759Z,25.30
2018-07-31T03:25:01.976Z,25.30
2018-07-31T03:27:30.203Z,25.30
2018-07-31T03:29:58.392Z,25.40
2018-07-31T03:32:26.598Z,25.40
2018-07-31T03:34:54.885Z,25.40
2018-07-31T03:37:23.086Z,25.30
2018-07-31T03:39:51.293Z,25.30
2018-07-31T03:42:19.538Z,25.20
2018-07-31T03:44:47.771Z,25.20
2018-07-31T03:47:16.011Z,25.10
2018-07-31T03:49:44.281Z,25.10
2018-07-31T03:52:12.466Z,25.20
2018-07-31T03:54:40.666Z,25.20
2018-07-31T03:57:08.882Z,25.30
2018-07-31T03:59:37.126Z,25.30
2018-07-31T04:02:05.321Z,25.30
2018-07-31T04:04:33.660Z,25.30
2018-07-31T04:07:01.862Z,25.30
2018-07-31T04:09:30.094Z,25.30
2018-07-31T04:11:58.355Z,25.30
2018-07-31T04:14:26.593Z,25.30
2018-07-31T04:16:54.846Z,25.30
2018-07-31T04:19:23.028Z,25.30
2018-07-31T04:21:51.283Z,25.30
2018-07-31T04:24:19.875Z,25.30
2018-07-31T04:26:48.175Z,25.30
2018-07-31T04:29:16.398Z,25.30
2018-07-31T04:31:44.642Z,25.30
2018-07-31T04:34:12.872Z,25.30
2018-07-31T04:36:41.157Z,25.40
2018-07-31T04:39:11.161Z,25.30
2018-07-31T04:41:39.381Z,25.40
2018-07-31T04:44:07.650Z,25.40
2018-07-31T04:46:35.889Z,25.50
2018-07-31T04:49:04.261Z,25.50
2018-07-31T04:51:32.483Z,25.60
2018-07-31T04:54:01.131Z,25.60
2018-07-31T04:56:29.376Z,25.60
2018-07-31T04:58:57.635Z,25.60
2018-07-31T05:01:25.850Z,25.60
2018-07-31T05:06:22.094Z,25.50
2018-07-31T05:08:50.339Z,25.50
2018-07-31T05:11:18.584Z,25.50
2018-07-31T05:13:46.781Z,25.50
2018-07-31T05:16:15.010Z,25.50
2018-07-31T05:18:43.226Z,25.50
2018-07-31T05:21:11.476Z,25.50
2018-07-31T05:23:39.675Z,25.40
2018-07-31T05:26:07.975Z,25.40
2018-07-31T05:28:36.241Z,25.40
2018-07-31T05:31:04.477Z,25.40
2018-07-31T05:33:32.694Z,25.50
2018-07-31T05:36:00.913Z,25.50
2018-07-31T05:38:29.158Z,25.40
2018-07-31T05:40:57.417Z,25.50
2018-07-31T05:43:25.671Z,25.50
2018-07-31T05:45:53.986Z,25.60
2018-07-31T05:48:22.209Z,25.70
2018-07-31T05:50:50.494Z,25.70
2018-07-31T05:53:18.695Z,25.80
2018-07-31T05:55:46.927Z,26.00
2018-07-31T05:58:15.168Z,26.30
2018-07-31T06:00:43.380Z,26.70
2018-07-31T06:03:11.684Z,27.20
2018-07-31T06:05:40.356Z,27.30
2018-07-31T06:08:08.589Z,27.50
2018-07-31T06:10:36.809Z,27.60
2018-07-31T06:13:05.018Z,27.80
2018-07-31T06:15:33.234Z,27.90
2018-07-31T06:18:01.435Z,27.90
2018-07-31T06:20:29.678Z,27.80
2018-07-31T06:22:57.940Z,27.70
2018-07-31T06:25:26.217Z,27.60
2018-07-31T06:27:54.450Z,27.60
2018-07-31T06:30:22.712Z,27.60
2018-07-31T06:32:50.987Z,27.60
2018-07-31T06:35:19.178Z,27.60
2018-07-31T06:37:47.469Z,27.60
2018-07-31T06:40:15.716Z,27.70
2018-07-31T06:42:43.910Z,27.70
2018-07-31T06:45:12.150Z,27.70
2018-07-31T06:47:40.371Z,27.60
2018-07-31T06:50:08.623Z,27.70
2018-07-31T06:52:36.862Z,27.80
2018-07-31T06:55:05.087Z,27.80
2018-07-31T06:57:33.330Z,27.90
2018-07-31T07:00:01.558Z,28.00
2018-07-31T07:02:29.818Z,28.20
2018-07-31T07:04:58.199Z,28.30
2018-07-31T07:07:26.477Z,28.50
2018-07-31T07:09:54.683Z,28.60
2018-07-31T07:12:22.907Z,28.70
2018-07-31T07:14:51.139Z,28.80
2018-07-31T07:17:19.398Z,28.90
2018-07-31T07:19:47.713Z,29.00
2018-07-31T07:22:15.941Z,29.10
2018-07-31T07:24:44.142Z,29.10
2018-07-31T07:27:12.359Z,29.10
2018-07-31T07:29:40.578Z,29.20
2018-07-31T07:32:08.795Z,29.30
2018-07-31T07:34:37.071Z,29.30
2018-07-31T07:37:05.555Z,29.10
2018-07-31T07:39:33.790Z,29.00
2018-07-31T07:42:02.066Z,28.90
2018-07-31T07:46:58.273Z,29.00
2018-07-31T07:49:26.520Z,29.00
2018-07-31T07:51:54.748Z,29.00
2018-07-31T07:54:23.040Z,29.00
2018-07-31T07:56:51.195Z,29.00
2018-07-31T07:59:19.426Z,29.00
2018-07-31T08:01:47.678Z,29.10
2018-07-31T08:04:16.083Z,29.40
2018-07-31T08:06:44.350Z,29.60
2018-07-31T08:09:12.574Z,29.80
2018-07-31T08:11:40.843Z,29.90
2018-07-31T08:14:09.079Z,30.10
2018-07-31T08:16:37.340Z,30.20
2018-07-31T08:19:05.644Z,30.30
2018-07-31T08:21:33.897Z,30.60
2018-07-31T08:24:02.207Z,31.00
2018-07-31T08:26:30.846Z,32.00
2018-07-31T08:28:59.088Z,33.40
2018-07-31T08:31:27.402Z,34.30
2018-07-31T08:33:55.660Z,34.90
2018-07-31T08:36:24.087Z,35.90
2018-07-31T08:38:52.354Z,37.00
2018-07-31T08:41:20.559Z,37.90
2018-07-31T08:43:48.780Z,38.50
2018-07-31T08:46:17.025Z,38.90
2018-07-31T08:48:45.283Z,39.90
2018-07-31T08:51:13.560Z,40.90
2018-07-31T08:53:41.819Z,41.70
2018-07-31T08:56:10.062Z,42.30
2018-07-31T08:58:38.285Z,42.30
2018-07-31T09:01:06.621Z,41.80
2018-07-31T09:03:34.938Z,41.70
2018-07-31T09:06:03.211Z,41.10
2018-07-31T09:08:31.682Z,40.40
2018-07-31T09:10:59.882Z,38.80
2018-07-31T09:13:28.262Z,37.10
2018-07-31T09:15:56.554Z,36.20
2018-07-31T09:18:24.902Z,35.60
2018-07-31T09:20:53.232Z,35.20
2018-07-31T09:23:21.550Z,34.70
2018-07-31T09:25:49.830Z,34.40
2018-07-31T09:28:18.786Z,34.30
2018-07-31T09:30:52.559Z,34.00
2018-07-31T09:33:20.811Z,33.80
2018-07-31T09:35:49.056Z,33.50
2018-07-31T09:38:17.298Z,33.40
2018-07-31T09:40:45.661Z,33.10
2018-07-31T09:43:13.886Z,33.10
2018-07-31T09:45:42.153Z,33.10
2018-07-31T09:48:10.475Z,33.20
2018-07-31T09:50:38.725Z,33.30
2018-07-31T09:53:07.139Z,33.30
2018-07-31T09:55:35.426Z,33.20
2018-07-31T09:58:03.657Z,33.10
2018-07-31T10:00:37.303Z,32.90
2018-07-31T10:03:05.736Z,32.70
2018-07-31T10:05:34.098Z,32.90
2018-07-31T10:08:02.542Z,33.00
2018-07-31T10:10:30.787Z,33.20
2018-07-31T10:12:59.084Z,33.10
2018-07-31T10:15:27.355Z,33.10
2018-07-31T10:17:55.655Z,33.20
2018-07-31T10:20:23.965Z,33.20
2018-07-31T10:22:52.207Z,32.90
2018-07-31T10:27:48.678Z,32.90
2018-07-31T10:30:16.943Z,33.00
2018-07-31T10:32:45.237Z,32.90
2018-07-31T10:35:13.463Z,33.10
2018-07-31T10:37:41.722Z,33.10
2018-07-31T10:40:09.913Z,33.00
2018-07-31T10:42:38.160Z,32.90
2018-07-31T10:45:06.406Z,32.80
2018-07-31T10:47:34.630Z,32.70
2018-07-31T10:50:02.903Z,32.70
2018-07-31T10:52:31.198Z,32.60
2018-07-31T10:54:59.572Z,32.40
2018-07-31T10:57:27.774Z,32.60
2018-07-31T10:59:56.104Z,32.70
2018-07-31T11:02:25.009Z,32.70
2018-07-31T11:04:53.390Z,32.60
2018-07-31T11:07:21.670Z,32.60
2018-07-31T11:09:49.974Z,32.60
2018-07-31T11:12:18.291Z,32.60
2018-07-31T11:14:46.619Z,32.90
2018-07-31T11:17:14.862Z,33.20
2018-07-31T11:19:43.109Z,33.20
2018-07-31T11:22:11.330Z,33.20
2018-07-31T11:24:39.755Z,33.00
2018-07-31T11:27:07.967Z,32.90
2018-07-31T11:29:36.246Z,33.10
2018-07-31T11:32:04.453Z,32.90
2018-07-31T11:34:32.766Z,32.90
2018-07-31T11:37:01.040Z,32.90
2018-07-31T11:39:29.302Z,33.00
2018-07-31T11:41:57.556Z,33.30
2018-07-31T11:44:25.783Z,33.40
2018-07-31T11:46:54.082Z,33.10
2018-07-31T11:49:22.339Z,32.80
2018-07-31T11:51:50.573Z,32.50
2018-07-31T11:54:18.818Z,32.50
2018-07-31T11:56:47.111Z,32.70
2018-07-31T11:59:15.363Z,32.90
2018-07-31T12:01:43.660Z,32.90
2018-07-31T12:04:11.825Z,33.10
2018-07-31T12:06:40.106Z,33.30
2018-07-31T12:09:11.608Z,33.20
2018-07-31T12:11:39.884Z,33.10
2018-07-31T12:14:08.110Z,33.20
2018-07-31T12:16:36.450Z,33.40
2018-07-31T12:19:04.702Z,33.30
2018-07-31T12:21:32.955Z,33.40
2018-07-31T12:24:01.294Z,33.30
2018-07-31T12:26:29.671Z,33.30
2018-07-31T12:28:58.048Z,33.30
2018-07-31T12:31:26.919Z,33.20
2018-07-31T12:33:55.175Z,33.40
2018-07-31T12:36:23.518Z,33.50
2018-07-31T12:38:51.793Z,33.50
2018-07-31T12:41:20.034Z,33.30
2018-07-31T12:43:48.654Z,33.30
2018-07-31T12:46:16.903Z,33.10
2018-07-31T12:48:45.183Z,33.10
2018-07-31T12:51:13.415Z,32.90
2018-07-31T12:53:41.719Z,32.80
2018-07-31T12:56:09.972Z,32.90
2018-07-31T12:58:38.234Z,32.80
2018-07-31T13:01:06.471Z,32.70
2018-07-31T13:03:34.738Z,32.90
2018-07-31T13:06:03.102Z,33.20
2018-07-31T13:08:31.339Z,33.30
2018-07-31T13:10:59.601Z,33.20
2018-07-31T13:13:27.902Z,33.00
2018-07-31T13:15:56.109Z,32.80
2018-07-31T13:18:24.415Z,32.90
2018-07-31T13:20:52.646Z,33.10
2018-07-31T13:23:20.834Z,33.10
2018-07-31T13:25:49.070Z,32.90
2018-07-31T13:28:17.244Z,32.70
2018-07-31T13:30:45.526Z,32.60
2018-07-31T13:33:13.695Z,32.40
2018-07-31T13:38:09.902Z,32.30
2018-07-31T13:40:38.352Z,32.50
2018-07-31T13:43:06.645Z,32.90
2018-07-31T13:45:34.870Z,33.40
2018-07-31T13:48:04.314Z,33.20
2018-07-31T13:50:32.544Z,33.10
2018-07-31T13:53:00.780Z,32.80
2018-07-31T13:55:29.177Z,32.80
2018-07-31T13:58:04.082Z,32.70
2018-07-31T14:00:33.626Z,32.70
2018-07-31T14:03:01.824Z,32.70
2018-07-31T14:05:30.076Z,32.70
2018-07-31T14:07:58.423Z,32.50
2018-07-31T14:10:26.667Z,32.30
2018-07-31T14:12:54.883Z,32.20
2018-07-31T14:15:23.095Z,32.20
2018-07-31T14:17:51.309Z,32.30
2018-07-31T14:20:19.556Z,32.30
2018-07-31T14:22:47.759Z,32.50
2018-07-31T14:25:16.122Z,32.60
2018-07-31T14:27:44.354Z,32.70
2018-07-31T14:30:13.975Z,32.70
2018-07-31T14:32:42.211Z,32.90
2018-07-31T14:35:10.498Z,32.90
2018-07-31T14:37:38.702Z,33.00
2018-07-31T14:40:06.991Z,33.10
2018-07-31T14:42:35.226Z,33.00
2018-07-31T14:45:03.505Z,33.10
2018-07-31T14:47:31.819Z,33.10
2018-07-31T14:50:00.133Z,33.20
2018-07-31T14:52:28.330Z,33.10
2018-07-31T14:54:56.593Z,33.10
2018-07-31T14:57:24.826Z,33.10
2018-07-31T14:59:53.096Z,33.30
2018-07-31T15:02:21.275Z,33.30
2018-07-31T15:04:49.499Z,32.90
2018-07-31T15:07:17.746Z,32.80
2018-07-31T15:09:46.015Z,32.80
2018-07-31T15:12:14.308Z,32.70
2018-07-31T15:14:42.506Z,32.50
2018-07-31T15:17:10.706Z,32.50
2018-07-31T15:19:39.365Z,32.60
2018-07-31T15:22:08.182Z,32.60
2018-07-31T15:24:36.438Z,32.80
2018-07-31T15:27:04.776Z,32.80
2018-07-31T15:29:33.039Z,32.70
2018-07-31T15:32:01.281Z,32.80
2018-07-31T15:34:29.526Z,32.80
2018-07-31T15:36:57.750Z,32.80
2018-07-31T15:39:26.610Z,32.60
2018-07-31T15:41:54.822Z,32.70
2018-07-31T15:44:23.046Z,32.70
2018-07-31T15:46:51.304Z,32.60
2018-07-31T15:49:19.606Z,32.60
2018-07-31T15:51:47.935Z,32.70
2018-07-31T15:54:16.138Z,32.70
2018-07-31T15:56:44.346Z,32.70
2018-07-31T15:59:12.576Z,32.70
2018-07-31T16:01:40.845Z,32.90
2018-07-31T16:04:09.127Z,32.80
2018-07-31T16:06:37.411Z,32.90
2018-07-31T16:09:07.918Z,32.80
2018-07-31T16:11:36.142Z,32.70
2018-07-31T16:14:04.367Z,32.60
2018-07-31T16:16:32.593Z,32.60
2018-07-31T16:19:00.807Z,32.60
2018-07-31T16:21:29.142Z,32.70
2018-07-31T16:23:57.496Z,32.80
2018-07-31T16:26:25.713Z,32.90
2018-07-31T16:28:53.991Z,32.90
2018-07-31T16:31:22.292Z,32.90
2018-07-31T16:33:50.813Z,32.80
2018-07-31T16:36:18.979Z,32.70
2018-07-31T16:38:47.227Z,32.50
2018-07-31T16:41:15.454Z,32.30
2018-07-31T16:43:43.831Z,32.20
2018-07-31T16:46:12.170Z,32.10
2018-07-31T16:48:41.344Z,32.30
2018-07-31T16:51:09.566Z,32.50
2018-07-31T16:53:37.789Z,32.60
2018-07-31T16:56:06.435Z,32.70
2018-07-31T16:58:34.689Z,32.50
2018-07-31T17:01:02.932Z,32.50
2018-07-31T17:03:31.185Z,32.50
2018-07-31T17:05:59.411Z,32.40
2018-07-31T17:08:27.617Z,32.30
2018-07-31T17:10:55.929Z,32.30
2018-07-31T17:13:24.229Z,32.40
2018-07-31T17:15:52.526Z,32.30
2018-07-31T17:18:20.730Z,32.20
2018-07-31T17:20:49.542Z,32.30
2018-07-31T17:23:17.790Z,32.30
2018-07-31T17:25:46.094Z,32.20
2018-07-31T17:28:15.396Z,32.10
2018-07-31T17:30:43.650Z,32.20
2018-07-31T17:33:11.869Z,32.10
2018-07-31T17:35:40.094Z,32.00
2018-07-31T17:38:08.350Z,31.90
2018-07-31T17:40:36.574Z,31.90
2018-07-31T17:43:04.853Z,31.80
2018-07-31T17:45:33.035Z,31.70
2018-07-31T17:48:01.306Z,31.70
2018-07-31T17:50:29.540Z,31.70
2018-07-31T17:52:57.798Z,31.60
2018-07-31T17:55:26.041Z,31.70
2018-07-31T17:57:54.389Z,31.70
2018-07-31T18:00:22.635Z,31.60
2018-07-31T18:02:50.843Z,31.40
2018-07-31T18:05:19.058Z,31.40
2018-07-31T18:07:47.339Z,31.30
2018-07-31T18:10:15.601Z,31.40
2018-07-31T18:12:43.802Z,31.30
2018-07-31T18:15:11.992Z,31.30
2018-07-31T18:17:40.266Z,31.20
2018-07-31T18:20:08.632Z,31.00
2018-07-31T18:22:36.931Z,30.90
2018-07-31T18:25:05.334Z,30.90
2018-07-31T18:27:33.566Z,30.80
2018-07-31T18:30:01.788Z,30.80
2018-07-31T18:32:30.116Z,30.70
2018-07-31T18:34:58.391Z,30.60
2018-07-31T18:37:26.532Z,30.60
2018-07-31T18:39:54.734Z,30.60
2018-07-31T18:42:23.247Z,30.50
2018-07-31T18:44:51.457Z,30.50
2018-07-31T18:47:19.720Z,30.50
2018-07-31T18:49:48.371Z,30.60
2018-07-31T18:52:16.566Z,30.50
2018-07-31T18:54:44.796Z,30.50
2018-07-31T18:57:13.481Z,30.40
2018-07-31T18:59:41.958Z,30.40
2018-07-31T19:02:10.251Z,30.30
2018-07-31T19:04:38.475Z,30.20
2018-07-31T19:07:06.690Z,30.20
2018-07-31T19:09:34.909Z,30.10
2018-07-31T19:12:03.163Z,30.10
2018-07-31T19:14:31.519Z,30.00
2018-07-31T19:16:59.730Z,30.00
2018-07-31T19:19:28.010Z,29.90
2018-07-31T19:21:56.228Z,29.90
2018-07-31T19:24:24.474Z,29.80
2018-07-31T19:26:52.679Z,29.80
2018-07-31T19:29:20.914Z,29.70
2018-07-31T19:31:49.125Z,29.70
2018-07-31T19:34:17.331Z,29.70
2018-07-31T19:36:45.551Z,29.60
2018-07-31T19:39:13.807Z,29.50
2018-07-31T19:41:42.198Z,29.40
2018-07-31T19:44:12.099Z,29.40
2018-07-31T19:46:40.458Z,29.40
2018-07-31T19:49:08.860Z,29.40
2018-07-31T19:51:37.199Z,29.30
2018-07-31T19:54:05.531Z,29.30
2018-07-31T19:56:33.794Z,29.30
2018-07-31T19:59:02.531Z,29.30
2018-07-31T20:01:30.799Z,29.30
2018-07-31T20:03:59.063Z,29.20
2018-07-31T20:06:27.226Z,29.20
2018-07-31T20:08:55.514Z,29.10
2018-07-31T20:11:23.820Z,29.00
2018-07-31T20:13:52.059Z,29.00
2018-07-31T20:16:20.338Z,28.90
2018-07-31T20:21:16.791Z,28.90
2018-07-31T20:23:45.155Z,28.90
2018-07-31T20:26:13.462Z,28.90
2018-07-31T20:28:42.079Z,28.80
2018-07-31T20:31:10.341Z,28.80
2018-07-31T20:33:38.625Z,28.70
2018-07-31T20:36:07.006Z,28.60
2018-07-31T20:38:35.396Z,28.60
2018-07-31T20:41:03.688Z,28.60
2018-07-31T20:43:31.983Z,28.60
2018-07-31T20:46:00.304Z,28.60
2018-07-31T20:48:28.530Z,28.60
2018-07-31T20:50:56.854Z,28.50
2018-07-31T20:53:25.091Z,28.50
2018-07-31T20:55:53.603Z,28.40
2018-07-31T20:58:21.811Z,28.40
2018-07-31T21:00:50.086Z,28.40
2018-07-31T21:03:18.331Z,28.40
2018-07-31T21:05:46.582Z,28.30
2018-07-31T21:08:14.818Z,28.30
2018-07-31T21:10:43.083Z,28.30
2018-07-31T21:13:11.638Z,28.20
2018-07-31T21:15:40.022Z,28.20
2018-07-31T21:18:08.295Z,28.20
2018-07-31T21:20:36.547Z,28.10
2018-07-31T21:23:04.906Z,28.10
2018-07-31T21:25:33.164Z,28.10
2018-07-31T21:28:01.463Z,28.10
2018-07-31T21:30:29.740Z,28.00
2018-07-31T21:32:58.004Z,28.00
2018-07-31T21:35:26.293Z,28.00
2018-07-31T21:37:54.575Z,28.00
2018-07-31T21:40:23.230Z,28.00
2018-07-31T21:42:51.472Z,28.00
2018-07-31T21:45:19.797Z,27.90
2018-07-31T21:47:48.045Z,27.90
2018-07-31T21:50:16.347Z,27.90
2018-07-31T21:52:44.716Z,27.80
2018-07-31T21:55:12.976Z,27.80
2018-07-31T21:57:41.174Z,27.80
2018-07-31T22:00:10.328Z,27.80
2018-07-31T22:02:38.893Z,27.70
2018-07-31T22:05:07.417Z,27.70
2018-07-31T22:07:35.696Z,27.60
2018-07-31T22:10:05.370Z,27.60
2018-07-31T22:12:33.602Z,27.60
2018-07-31T22:15:01.844Z,27.50
2018-07-31T22:17:30.091Z,27.50
2018-07-31T22:19:58.942Z,27.30
2018-07-31T22:22:27.206Z,27.30
2018-07-31T22:24:55.401Z,27.30
2018-07-31T22:27:23.688Z,27.30
2018-07-31T22:29:51.956Z,27.30
2018-07-31T22:32:20.247Z,27.10
2018-07-31T22:34:48.462Z,27.00
2018-07-31T22:37:16.669Z,26.90
2018-07-31T22:39:44.884Z,26.90
2018-07-31T22:42:13.098Z,26.90
2018-07-31T22:44:41.318Z,26.90
2018-07-31T22:47:09.548Z,26.90
2018-07-31T22:49:37.778Z,26.90
2018-07-31T22:52:06.209Z,26.90
2018-07-31T22:54:34.427Z,26.90
2018-07-31T22:57:02.670Z,26.90
2018-07-31T22:59:30.908Z,26.70
2018-07-31T23:01:59.122Z,26.70
2018-07-31T23:04:27.390Z,26.70
2018-07-31T23:06:56.486Z,26.70
2018-07-31T23:09:24.684Z,26.70
2018-07-31T23:11:52.941Z,26.70
2018-07-31T23:14:21.150Z,26.70
2018-07-31T23:16:49.389Z,26.60
2018-07-31T23:19:17.593Z,26.60
2018-07-31T23:21:45.828Z,26.70
2018-07-31T23:24:14.726Z,26.60
2018-07-31T23:26:42.981Z,26.50
2018-07-31T23:29:11.242Z,26.50
2018-07-31T23:31:39.497Z,26.60
2018-07-31T23:36:36.076Z,26.50
2018-07-31T23:39:05.868Z,26.50
2018-07-31T23:41:34.103Z,26.50
2018-07-31T23:44:02.329Z,26.50
2018-07-31T23:46:30.590Z,26.40
2018-07-31T23:48:58.827Z,26.40
2018-07-31T23:51:27.025Z,26.40
2018-07-31T23:53:55.272Z,26.40
2018-07-31T23:56:23.491Z,26.50
2018-07-31T23:58:51.689Z,26.50
